sensor_id;sensor_type;location;lat;lon;timestamp;P1;durP1;ratioP1;P2;durP2;ratioP2
20294;SDS011;10306;52.128;5.208;2024-01-06T00:00:36;16.40;;;11.97;;
20294;SDS011;10306;52.128;5.208;2024-01-06T00:03:02;15.23;;;12.03;;
20294;SDS011;10306;52.128;5.208;2024-01-06T00:05:28;13.67;;;10.47;;
20294;SDS011;10306;52.128;5.208;2024-01-06T00:07:53;15.03;;;11.10;;
20294;SDS011;10306;52.128;5.208;2024-01-06T00:10:19;13.57;;;10.87;;
20294;SDS011;10306;52.128;5.208;2024-01-06T00:12:45;15.80;;;10.70;;
20294;SDS011;10306;52.128;5.208;2024-01-06T00:15:13;15.73;;;11.10;;
20294;SDS011;10306;52.128;5.208;2024-01-06T00:17:39;14.47;;;11.27;;
20294;SDS011;10306;52.128;5.208;2024-01-06T00:20:05;11.43;;;9.93;;
20294;SDS011;10306;52.128;5.208;2024-01-06T00:22:31;15.67;;;10.27;;
20294;SDS011;10306;52.128;5.208;2024-01-06T00:24:57;16.43;;;10.23;;
20294;SDS011;10306;52.128;5.208;2024-01-06T00:27:24;12.00;;;9.33;;
20294;SDS011;10306;52.128;5.208;2024-01-06T00:29:50;10.47;;;9.07;;
20294;SDS011;10306;52.128;5.208;2024-01-06T00:32:16;11.13;;;8.90;;
20294;SDS011;10306;52.128;5.208;2024-01-06T00:34:42;13.80;;;9.50;;
20294;SDS011;10306;52.128;5.208;2024-01-06T00:37:08;9.83;;;8.50;;
20294;SDS011;10306;52.128;5.208;2024-01-06T00:39:34;12.27;;;8.27;;
20294;SDS011;10306;52.128;5.208;2024-01-06T00:42:00;10.43;;;7.97;;
20294;SDS011;10306;52.128;5.208;2024-01-06T00:44:26;9.03;;;7.07;;
20294;SDS011;10306;52.128;5.208;2024-01-06T00:46:52;8.90;;;6.80;;
20294;SDS011;10306;52.128;5.208;2024-01-06T00:49:18;8.20;;;7.43;;
20294;SDS011;10306;52.128;5.208;2024-01-06T00:51:44;7.27;;;6.53;;
20294;SDS011;10306;52.128;5.208;2024-01-06T00:54:10;8.03;;;6.87;;
20294;SDS011;10306;52.128;5.208;2024-01-06T00:56:36;7.70;;;6.70;;
20294;SDS011;10306;52.128;5.208;2024-01-06T00:59:02;7.10;;;6.13;;
20294;SDS011;10306;52.128;5.208;2024-01-06T01:01:28;6.20;;;5.70;;
20294;SDS011;10306;52.128;5.208;2024-01-06T01:03:54;6.07;;;5.57;;
20294;SDS011;10306;52.128;5.208;2024-01-06T01:06:19;5.77;;;5.37;;
20294;SDS011;10306;52.128;5.208;2024-01-06T01:08:46;5.80;;;5.30;;
20294;SDS011;10306;52.128;5.208;2024-01-06T01:11:12;5.50;;;5.00;;
20294;SDS011;10306;52.128;5.208;2024-01-06T01:13:38;5.57;;;5.17;;
20294;SDS011;10306;52.128;5.208;2024-01-06T01:16:04;5.70;;;5.30;;
20294;SDS011;10306;52.128;5.208;2024-01-06T01:18:30;5.70;;;5.10;;
20294;SDS011;10306;52.128;5.208;2024-01-06T01:20:56;6.43;;;5.60;;
20294;SDS011;10306;52.128;5.208;2024-01-06T01:23:22;5.33;;;4.47;;
20294;SDS011;10306;52.128;5.208;2024-01-06T01:25:48;4.80;;;4.50;;
20294;SDS011;10306;52.128;5.208;2024-01-06T01:28:14;5.53;;;5.13;;
20294;SDS011;10306;52.128;5.208;2024-01-06T01:30:40;4.87;;;4.60;;
20294;SDS011;10306;52.128;5.208;2024-01-06T01:33:06;6.27;;;5.67;;
20294;SDS011;10306;52.128;5.208;2024-01-06T01:35:33;6.47;;;5.97;;
20294;SDS011;10306;52.128;5.208;2024-01-06T01:37:58;6.73;;;6.23;;
20294;SDS011;10306;52.128;5.208;2024-01-06T01:40:24;7.63;;;6.47;;
20294;SDS011;10306;52.128;5.208;2024-01-06T01:42:50;7.20;;;6.63;;
20294;SDS011;10306;52.128;5.208;2024-01-06T01:45:16;7.60;;;6.90;;
20294;SDS011;10306;52.128;5.208;2024-01-06T01:47:42;9.37;;;7.40;;
20294;SDS011;10306;52.128;5.208;2024-01-06T01:50:10;8.80;;;7.90;;
20294;SDS011;10306;52.128;5.208;2024-01-06T01:52:37;8.03;;;7.33;;
20294;SDS011;10306;52.128;5.208;2024-01-06T01:55:04;7.80;;;7.20;;
20294;SDS011;10306;52.128;5.208;2024-01-06T01:57:30;8.10;;;7.40;;
20294;SDS011;10306;52.128;5.208;2024-01-06T01:59:56;7.83;;;7.13;;
20294;SDS011;10306;52.128;5.208;2024-01-06T02:02:22;7.00;;;6.37;;
20294;SDS011;10306;52.128;5.208;2024-01-06T02:04:48;7.77;;;6.97;;
20294;SDS011;10306;52.128;5.208;2024-01-06T02:07:14;8.40;;;6.97;;
20294;SDS011;10306;52.128;5.208;2024-01-06T02:09:40;6.80;;;6.30;;
20294;SDS011;10306;52.128;5.208;2024-01-06T02:12:06;7.33;;;5.93;;
20294;SDS011;10306;52.128;5.208;2024-01-06T02:14:32;6.20;;;5.70;;
20294;SDS011;10306;52.128;5.208;2024-01-06T02:16:58;5.93;;;5.60;;
20294;SDS011;10306;52.128;5.208;2024-01-06T02:19:24;6.03;;;5.60;;
20294;SDS011;10306;52.128;5.208;2024-01-06T02:21:53;6.23;;;5.63;;
20294;SDS011;10306;52.128;5.208;2024-01-06T02:24:19;5.77;;;5.37;;
20294;SDS011;10306;52.128;5.208;2024-01-06T02:26:45;6.07;;;5.47;;
20294;SDS011;10306;52.128;5.208;2024-01-06T02:29:11;5.63;;;5.33;;
20294;SDS011;10306;52.128;5.208;2024-01-06T02:31:37;5.73;;;5.20;;
20294;SDS011;10306;52.128;5.208;2024-01-06T02:34:03;5.53;;;5.13;;
20294;SDS011;10306;52.128;5.208;2024-01-06T02:36:29;5.67;;;5.27;;
20294;SDS011;10306;52.128;5.208;2024-01-06T02:38:55;6.37;;;5.83;;
20294;SDS011;10306;52.128;5.208;2024-01-06T02:41:21;5.87;;;5.47;;
20294;SDS011;10306;52.128;5.208;2024-01-06T02:43:47;5.40;;;5.10;;
20294;SDS011;10306;52.128;5.208;2024-01-06T02:46:13;7.03;;;6.33;;
20294;SDS011;10306;52.128;5.208;2024-01-06T02:48:39;6.00;;;5.53;;
20294;SDS011;10306;52.128;5.208;2024-01-06T02:51:05;6.90;;;5.87;;
20294;SDS011;10306;52.128;5.208;2024-01-06T02:53:31;6.87;;;6.20;;
20294;SDS011;10306;52.128;5.208;2024-01-06T02:55:57;5.90;;;5.50;;
20294;SDS011;10306;52.128;5.208;2024-01-06T02:58:23;6.57;;;5.93;;
20294;SDS011;10306;52.128;5.208;2024-01-06T03:00:49;6.43;;;5.93;;
20294;SDS011;10306;52.128;5.208;2024-01-06T03:03:15;6.57;;;6.10;;
20294;SDS011;10306;52.128;5.208;2024-01-06T03:05:41;6.30;;;5.70;;
20294;SDS011;10306;52.128;5.208;2024-01-06T03:08:07;5.93;;;5.47;;
20294;SDS011;10306;52.128;5.208;2024-01-06T03:10:33;6.60;;;6.00;;
20294;SDS011;10306;52.128;5.208;2024-01-06T03:12:59;6.13;;;5.63;;
20294;SDS011;10306;52.128;5.208;2024-01-06T03:15:25;6.17;;;5.67;;
20294;SDS011;10306;52.128;5.208;2024-01-06T03:17:51;6.33;;;5.93;;
20294;SDS011;10306;52.128;5.208;2024-01-06T03:20:17;8.40;;;6.10;;
20294;SDS011;10306;52.128;5.208;2024-01-06T03:22:43;6.23;;;5.70;;
20294;SDS011;10306;52.128;5.208;2024-01-06T03:25:09;7.60;;;6.00;;
20294;SDS011;10306;52.128;5.208;2024-01-06T03:27:35;6.73;;;6.23;;
20294;SDS011;10306;52.128;5.208;2024-01-06T03:30:01;7.23;;;6.57;;
20294;SDS011;10306;52.128;5.208;2024-01-06T03:32:28;6.97;;;6.27;;
20294;SDS011;10306;52.128;5.208;2024-01-06T03:34:54;7.17;;;6.50;;
20294;SDS011;10306;52.128;5.208;2024-01-06T03:37:20;7.00;;;6.40;;
20294;SDS011;10306;52.128;5.208;2024-01-06T03:39:47;6.93;;;6.43;;
20294;SDS011;10306;52.128;5.208;2024-01-06T03:42:13;6.93;;;6.43;;
20294;SDS011;10306;52.128;5.208;2024-01-06T03:44:39;8.20;;;7.43;;
20294;SDS011;10306;52.128;5.208;2024-01-06T03:47:05;6.93;;;6.43;;
20294;SDS011;10306;52.128;5.208;2024-01-06T03:49:31;7.60;;;6.90;;
20294;SDS011;10306;52.128;5.208;2024-01-06T03:51:57;7.63;;;6.93;;
20294;SDS011;10306;52.128;5.208;2024-01-06T03:54:23;8.03;;;7.20;;
20294;SDS011;10306;52.128;5.208;2024-01-06T03:56:49;7.63;;;6.83;;
20294;SDS011;10306;52.128;5.208;2024-01-06T03:59:15;8.93;;;6.73;;
20294;SDS011;10306;52.128;5.208;2024-01-06T04:01:41;8.60;;;7.13;;
20294;SDS011;10306;52.128;5.208;2024-01-06T04:04:07;8.43;;;6.50;;
20294;SDS011;10306;52.128;5.208;2024-01-06T04:06:33;9.17;;;7.30;;
20294;SDS011;10306;52.128;5.208;2024-01-06T04:09:00;7.73;;;7.03;;
20294;SDS011;10306;52.128;5.208;2024-01-06T04:11:26;9.10;;;6.53;;
20294;SDS011;10306;52.128;5.208;2024-01-06T04:13:52;6.67;;;6.17;;
20294;SDS011;10306;52.128;5.208;2024-01-06T04:16:19;7.17;;;6.53;;
20294;SDS011;10306;52.128;5.208;2024-01-06T04:18:45;7.13;;;6.53;;
20294;SDS011;10306;52.128;5.208;2024-01-06T04:21:11;7.40;;;6.73;;
20294;SDS011;10306;52.128;5.208;2024-01-06T04:23:37;8.07;;;7.23;;
20294;SDS011;10306;52.128;5.208;2024-01-06T04:26:03;8.23;;;6.73;;
20294;SDS011;10306;52.128;5.208;2024-01-06T04:28:30;6.97;;;6.30;;
20294;SDS011;10306;52.128;5.208;2024-01-06T04:30:55;7.03;;;6.33;;
20294;SDS011;10306;52.128;5.208;2024-01-06T04:33:21;8.10;;;7.30;;
20294;SDS011;10306;52.128;5.208;2024-01-06T04:35:47;7.97;;;7.17;;
20294;SDS011;10306;52.128;5.208;2024-01-06T04:38:15;8.40;;;6.90;;
20294;SDS011;10306;52.128;5.208;2024-01-06T04:40:41;8.93;;;6.90;;
20294;SDS011;10306;52.128;5.208;2024-01-06T04:43:08;7.90;;;7.10;;
20294;SDS011;10306;52.128;5.208;2024-01-06T04:45:34;9.77;;;7.73;;
20294;SDS011;10306;52.128;5.208;2024-01-06T04:48:02;10.13;;;7.73;;
20294;SDS011;10306;52.128;5.208;2024-01-06T04:50:28;11.33;;;8.20;;
20294;SDS011;10306;52.128;5.208;2024-01-06T04:52:54;9.80;;;7.63;;
20294;SDS011;10306;52.128;5.208;2024-01-06T04:55:20;8.77;;;7.87;;
20294;SDS011;10306;52.128;5.208;2024-01-06T04:57:47;12.37;;;8.23;;
20294;SDS011;10306;52.128;5.208;2024-01-06T05:00:14;12.93;;;8.33;;
20294;SDS011;10306;52.128;5.208;2024-01-06T05:02:40;11.77;;;9.10;;
20294;SDS011;10306;52.128;5.208;2024-01-06T05:05:06;11.67;;;9.30;;
20294;SDS011;10306;52.128;5.208;2024-01-06T05:07:32;12.30;;;9.23;;
20294;SDS011;10306;52.128;5.208;2024-01-06T05:09:58;11.10;;;9.50;;
20294;SDS011;10306;52.128;5.208;2024-01-06T05:12:24;14.47;;;10.20;;
20294;SDS011;10306;52.128;5.208;2024-01-06T05:14:50;10.60;;;9.27;;
20294;SDS011;10306;52.128;5.208;2024-01-06T05:17:16;13.70;;;9.97;;
20294;SDS011;10306;52.128;5.208;2024-01-06T05:19:42;10.13;;;9.07;;
20294;SDS011;10306;52.128;5.208;2024-01-06T05:22:08;11.27;;;9.33;;
20294;SDS011;10306;52.128;5.208;2024-01-06T05:24:34;13.13;;;9.20;;
20294;SDS011;10306;52.128;5.208;2024-01-06T05:27:00;15.13;;;9.50;;
20294;SDS011;10306;52.128;5.208;2024-01-06T05:29:26;12.53;;;9.17;;
20294;SDS011;10306;52.128;5.208;2024-01-06T05:31:52;12.80;;;9.33;;
20294;SDS011;10306;52.128;5.208;2024-01-06T05:34:18;10.77;;;8.53;;
20294;SDS011;10306;52.128;5.208;2024-01-06T05:36:44;9.43;;;8.43;;
20294;SDS011;10306;52.128;5.208;2024-01-06T05:39:10;9.43;;;8.37;;
20294;SDS011;10306;52.128;5.208;2024-01-06T05:41:39;8.87;;;8.00;;
20294;SDS011;10306;52.128;5.208;2024-01-06T05:44:06;9.50;;;7.77;;
20294;SDS011;10306;52.128;5.208;2024-01-06T05:46:33;12.33;;;7.83;;
20294;SDS011;10306;52.128;5.208;2024-01-06T05:48:59;10.53;;;7.60;;
20294;SDS011;10306;52.128;5.208;2024-01-06T05:51:25;10.70;;;8.73;;
20294;SDS011;10306;52.128;5.208;2024-01-06T05:53:51;11.37;;;8.43;;
20294;SDS011;10306;52.128;5.208;2024-01-06T05:56:23;11.33;;;8.10;;
20294;SDS011;10306;52.128;5.208;2024-01-06T05:58:50;13.53;;;9.20;;
20294;SDS011;10306;52.128;5.208;2024-01-06T06:01:16;9.93;;;8.57;;
20294;SDS011;10306;52.128;5.208;2024-01-06T06:03:42;11.57;;;8.80;;
20294;SDS011;10306;52.128;5.208;2024-01-06T06:06:08;10.87;;;8.87;;
20294;SDS011;10306;52.128;5.208;2024-01-06T06:08:34;11.63;;;9.73;;
20294;SDS011;10306;52.128;5.208;2024-01-06T06:11:00;16.60;;;10.77;;
20294;SDS011;10306;52.128;5.208;2024-01-06T06:13:29;12.70;;;9.83;;
20294;SDS011;10306;52.128;5.208;2024-01-06T06:15:55;13.53;;;9.23;;
20294;SDS011;10306;52.128;5.208;2024-01-06T06:18:21;12.33;;;9.80;;
20294;SDS011;10306;52.128;5.208;2024-01-06T06:20:47;15.90;;;9.57;;
20294;SDS011;10306;52.128;5.208;2024-01-06T06:23:13;13.97;;;9.80;;
20294;SDS011;10306;52.128;5.208;2024-01-06T06:25:39;14.23;;;9.20;;
20294;SDS011;10306;52.128;5.208;2024-01-06T06:28:05;15.47;;;10.23;;
20294;SDS011;10306;52.128;5.208;2024-01-06T06:30:32;12.20;;;8.87;;
20294;SDS011;10306;52.128;5.208;2024-01-06T06:32:58;10.87;;;8.93;;
20294;SDS011;10306;52.128;5.208;2024-01-06T06:35:24;13.40;;;9.67;;
20294;SDS011;10306;52.128;5.208;2024-01-06T06:37:50;10.67;;;8.90;;
20294;SDS011;10306;52.128;5.208;2024-01-06T06:40:16;9.17;;;8.23;;
20294;SDS011;10306;52.128;5.208;2024-01-06T06:42:42;10.37;;;7.97;;
20294;SDS011;10306;52.128;5.208;2024-01-06T06:45:08;8.67;;;7.37;;
20294;SDS011;10306;52.128;5.208;2024-01-06T06:47:36;7.47;;;6.87;;
20294;SDS011;10306;52.128;5.208;2024-01-06T06:50:02;7.03;;;6.33;;
20294;SDS011;10306;52.128;5.208;2024-01-06T06:52:28;8.17;;;6.50;;
20294;SDS011;10306;52.128;5.208;2024-01-06T06:54:54;7.20;;;6.50;;
20294;SDS011;10306;52.128;5.208;2024-01-06T06:57:20;6.90;;;6.30;;
20294;SDS011;10306;52.128;5.208;2024-01-06T06:59:46;7.50;;;6.80;;
20294;SDS011;10306;52.128;5.208;2024-01-06T07:02:12;6.70;;;6.20;;
20294;SDS011;10306;52.128;5.208;2024-01-06T07:04:38;7.03;;;6.43;;
20294;SDS011;10306;52.128;5.208;2024-01-06T07:07:04;7.43;;;6.67;;
20294;SDS011;10306;52.128;5.208;2024-01-06T07:09:30;7.27;;;6.57;;
20294;SDS011;10306;52.128;5.208;2024-01-06T07:11:56;6.90;;;6.30;;
20294;SDS011;10306;52.128;5.208;2024-01-06T07:14:22;8.87;;;6.63;;
20294;SDS011;10306;52.128;5.208;2024-01-06T07:16:48;10.00;;;6.77;;
20294;SDS011;10306;52.128;5.208;2024-01-06T07:19:14;9.90;;;7.10;;
20294;SDS011;10306;52.128;5.208;2024-01-06T07:21:40;10.43;;;7.13;;
20294;SDS011;10306;52.128;5.208;2024-01-06T07:24:06;9.87;;;7.23;;
20294;SDS011;10306;52.128;5.208;2024-01-06T07:26:32;9.67;;;7.27;;
20294;SDS011;10306;52.128;5.208;2024-01-06T07:28:58;9.40;;;8.23;;
20294;SDS011;10306;52.128;5.208;2024-01-06T07:31:24;11.37;;;7.83;;
20294;SDS011;10306;52.128;5.208;2024-01-06T07:33:50;8.07;;;7.37;;
20294;SDS011;10306;52.128;5.208;2024-01-06T07:36:16;8.90;;;8.00;;
20294;SDS011;10306;52.128;5.208;2024-01-06T07:38:42;10.73;;;7.70;;
20294;SDS011;10306;52.128;5.208;2024-01-06T07:41:10;8.37;;;7.03;;
20294;SDS011;10306;52.128;5.208;2024-01-06T07:43:36;10.60;;;8.40;;
20294;SDS011;10306;52.128;5.208;2024-01-06T07:46:02;8.37;;;7.40;;
20294;SDS011;10306;52.128;5.208;2024-01-06T07:48:29;9.27;;;7.40;;
20294;SDS011;10306;52.128;5.208;2024-01-06T07:50:54;8.60;;;7.80;;
20294;SDS011;10306;52.128;5.208;2024-01-06T07:53:20;8.30;;;7.40;;
20294;SDS011;10306;52.128;5.208;2024-01-06T07:55:46;7.37;;;6.50;;
20294;SDS011;10306;52.128;5.208;2024-01-06T07:58:12;12.20;;;7.43;;
20294;SDS011;10306;52.128;5.208;2024-01-06T08:00:38;7.33;;;6.70;;
20294;SDS011;10306;52.128;5.208;2024-01-06T08:03:04;8.37;;;7.47;;
20294;SDS011;10306;52.128;5.208;2024-01-06T08:05:31;10.60;;;6.80;;
20294;SDS011;10306;52.128;5.208;2024-01-06T08:07:57;12.33;;;7.43;;
20294;SDS011;10306;52.128;5.208;2024-01-06T08:10:23;8.87;;;7.60;;
20294;SDS011;10306;52.128;5.208;2024-01-06T08:12:49;10.27;;;7.53;;
20294;SDS011;10306;52.128;5.208;2024-01-06T08:15:15;9.47;;;7.27;;
20294;SDS011;10306;52.128;5.208;2024-01-06T08:17:41;9.87;;;7.50;;
20294;SDS011;10306;52.128;5.208;2024-01-06T08:20:08;9.20;;;7.73;;
20294;SDS011;10306;52.128;5.208;2024-01-06T08:22:34;10.37;;;8.63;;
20294;SDS011;10306;52.128;5.208;2024-01-06T08:25:00;13.30;;;8.10;;
20294;SDS011;10306;52.128;5.208;2024-01-06T08:27:26;11.63;;;7.57;;
20294;SDS011;10306;52.128;5.208;2024-01-06T08:29:52;12.27;;;7.57;;
20294;SDS011;10306;52.128;5.208;2024-01-06T08:32:18;9.07;;;7.97;;
20294;SDS011;10306;52.128;5.208;2024-01-06T08:34:44;10.87;;;8.30;;
20294;SDS011;10306;52.128;5.208;2024-01-06T08:37:09;9.37;;;8.43;;
20294;SDS011;10306;52.128;5.208;2024-01-06T08:39:35;11.97;;;8.60;;
20294;SDS011;10306;52.128;5.208;2024-01-06T08:42:01;12.17;;;8.80;;
20294;SDS011;10306;52.128;5.208;2024-01-06T08:44:27;12.07;;;8.40;;
20294;SDS011;10306;52.128;5.208;2024-01-06T08:46:53;10.93;;;8.67;;
20294;SDS011;10306;52.128;5.208;2024-01-06T08:49:19;12.17;;;8.20;;
20294;SDS011;10306;52.128;5.208;2024-01-06T08:51:45;13.60;;;9.27;;
20294;SDS011;10306;52.128;5.208;2024-01-06T08:54:11;13.27;;;8.87;;
20294;SDS011;10306;52.128;5.208;2024-01-06T08:56:37;15.43;;;8.30;;
20294;SDS011;10306;52.128;5.208;2024-01-06T08:59:03;10.37;;;8.40;;
20294;SDS011;10306;52.128;5.208;2024-01-06T09:01:29;8.97;;;8.07;;
20294;SDS011;10306;52.128;5.208;2024-01-06T09:03:56;10.47;;;8.70;;
20294;SDS011;10306;52.128;5.208;2024-01-06T09:06:22;8.40;;;7.57;;
20294;SDS011;10306;52.128;5.208;2024-01-06T09:08:49;8.07;;;7.37;;
20294;SDS011;10306;52.128;5.208;2024-01-06T09:11:15;9.23;;;7.47;;
20294;SDS011;10306;52.128;5.208;2024-01-06T09:13:40;9.17;;;7.07;;
20294;SDS011;10306;52.128;5.208;2024-01-06T09:16:06;8.13;;;7.33;;
20294;SDS011;10306;52.128;5.208;2024-01-06T09:18:32;10.40;;;6.97;;
20294;SDS011;10306;52.128;5.208;2024-01-06T09:20:58;9.03;;;7.00;;
20294;SDS011;10306;52.128;5.208;2024-01-06T09:23:24;8.47;;;6.50;;
20294;SDS011;10306;52.128;5.208;2024-01-06T09:25:50;10.53;;;6.70;;
20294;SDS011;10306;52.128;5.208;2024-01-06T09:28:17;8.40;;;5.90;;
20294;SDS011;10306;52.128;5.208;2024-01-06T09:30:43;11.03;;;6.37;;
20294;SDS011;10306;52.128;5.208;2024-01-06T09:33:09;8.53;;;6.00;;
20294;SDS011;10306;52.128;5.208;2024-01-06T09:35:35;6.07;;;5.17;;
20294;SDS011;10306;52.128;5.208;2024-01-06T09:38:01;6.13;;;5.53;;
20294;SDS011;10306;52.128;5.208;2024-01-06T09:40:27;6.47;;;5.77;;
20294;SDS011;10306;52.128;5.208;2024-01-06T09:42:57;6.73;;;5.73;;
20294;SDS011;10306;52.128;5.208;2024-01-06T09:45:23;6.60;;;5.93;;
20294;SDS011;10306;52.128;5.208;2024-01-06T09:47:49;7.00;;;5.37;;
20294;SDS011;10306;52.128;5.208;2024-01-06T09:50:19;7.50;;;5.43;;
20294;SDS011;10306;52.128;5.208;2024-01-06T09:52:45;7.33;;;5.50;;
20294;SDS011;10306;52.128;5.208;2024-01-06T09:55:18;5.73;;;5.23;;
20294;SDS011;10306;52.128;5.208;2024-01-06T09:57:49;7.20;;;5.53;;
20294;SDS011;10306;52.128;5.208;2024-01-06T10:00:15;5.83;;;5.43;;
20294;SDS011;10306;52.128;5.208;2024-01-06T10:02:41;8.17;;;5.37;;
20294;SDS011;10306;52.128;5.208;2024-01-06T10:05:08;6.90;;;5.63;;
20294;SDS011;10306;52.128;5.208;2024-01-06T10:07:35;5.50;;;5.00;;
20294;SDS011;10306;52.128;5.208;2024-01-06T10:10:00;6.87;;;5.93;;
20294;SDS011;10306;52.128;5.208;2024-01-06T10:12:26;7.10;;;5.33;;
20294;SDS011;10306;52.128;5.208;2024-01-06T10:14:53;5.30;;;4.80;;
20294;SDS011;10306;52.128;5.208;2024-01-06T10:17:19;6.13;;;5.53;;
20294;SDS011;10306;52.128;5.208;2024-01-06T10:19:45;6.43;;;4.90;;
20294;SDS011;10306;52.128;5.208;2024-01-06T10:22:14;6.70;;;5.57;;
20294;SDS011;10306;52.128;5.208;2024-01-06T10:24:40;6.20;;;5.33;;
20294;SDS011;10306;52.128;5.208;2024-01-06T10:27:06;10.47;;;5.23;;
20294;SDS011;10306;52.128;5.208;2024-01-06T10:29:33;6.07;;;5.00;;
20294;SDS011;10306;52.128;5.208;2024-01-06T10:32:00;5.80;;;5.30;;
20294;SDS011;10306;52.128;5.208;2024-01-06T10:34:26;7.27;;;5.47;;
20294;SDS011;10306;52.128;5.208;2024-01-06T10:36:52;5.80;;;5.20;;
20294;SDS011;10306;52.128;5.208;2024-01-06T10:39:18;9.47;;;5.40;;
20294;SDS011;10306;52.128;5.208;2024-01-06T10:41:45;6.10;;;5.60;;
20294;SDS011;10306;52.128;5.208;2024-01-06T10:44:11;7.30;;;6.17;;
20294;SDS011;10306;52.128;5.208;2024-01-06T10:46:38;7.80;;;7.10;;
20294;SDS011;10306;52.128;5.208;2024-01-06T10:49:05;5.97;;;5.20;;
20294;SDS011;10306;52.128;5.208;2024-01-06T10:51:34;6.87;;;5.67;;
20294;SDS011;10306;52.128;5.208;2024-01-06T10:54:01;10.13;;;5.80;;
20294;SDS011;10306;52.128;5.208;2024-01-06T10:56:28;5.53;;;5.07;;
20294;SDS011;10306;52.128;5.208;2024-01-06T10:58:55;11.27;;;6.00;;
20294;SDS011;10306;52.128;5.208;2024-01-06T11:01:23;6.27;;;5.00;;
20294;SDS011;10306;52.128;5.208;2024-01-06T11:03:52;7.17;;;5.70;;
20294;SDS011;10306;52.128;5.208;2024-01-06T11:06:19;8.13;;;6.10;;
20294;SDS011;10306;52.128;5.208;2024-01-06T11:08:48;6.67;;;5.50;;
20294;SDS011;10306;52.128;5.208;2024-01-06T11:11:16;6.40;;;5.80;;
20294;SDS011;10306;52.128;5.208;2024-01-06T11:13:43;6.57;;;5.90;;
20294;SDS011;10306;52.128;5.208;2024-01-06T11:16:10;6.63;;;6.00;;
20294;SDS011;10306;52.128;5.208;2024-01-06T11:18:37;10.00;;;6.30;;
20294;SDS011;10306;52.128;5.208;2024-01-06T11:21:16;6.67;;;6.03;;
20294;SDS011;10306;52.128;5.208;2024-01-06T11:23:42;7.07;;;6.10;;
20294;SDS011;10306;52.128;5.208;2024-01-06T11:26:09;8.97;;;6.50;;
20294;SDS011;10306;52.128;5.208;2024-01-06T11:28:45;8.40;;;5.90;;
20294;SDS011;10306;52.128;5.208;2024-01-06T11:31:11;7.57;;;6.77;;
20294;SDS011;10306;52.128;5.208;2024-01-06T11:33:41;8.63;;;6.80;;
20294;SDS011;10306;52.128;5.208;2024-01-06T11:36:10;6.97;;;6.40;;
20294;SDS011;10306;52.128;5.208;2024-01-06T11:38:37;9.37;;;7.60;;
20294;SDS011;10306;52.128;5.208;2024-01-06T11:41:05;6.67;;;5.97;;
20294;SDS011;10306;52.128;5.208;2024-01-06T11:43:31;6.93;;;6.30;;
20294;SDS011;10306;52.128;5.208;2024-01-06T11:46:00;9.03;;;6.63;;
20294;SDS011;10306;52.128;5.208;2024-01-06T11:48:29;7.10;;;6.50;;
20294;SDS011;10306;52.128;5.208;2024-01-06T11:50:56;8.20;;;6.97;;
20294;SDS011;10306;52.128;5.208;2024-01-06T11:53:23;10.13;;;6.47;;
20294;SDS011;10306;52.128;5.208;2024-01-06T11:55:52;7.57;;;6.73;;
20294;SDS011;10306;52.128;5.208;2024-01-06T11:58:18;7.97;;;7.20;;
20294;SDS011;10306;52.128;5.208;2024-01-06T12:00:45;9.43;;;7.10;;
20294;SDS011;10306;52.128;5.208;2024-01-06T12:03:20;7.30;;;6.60;;
20294;SDS011;10306;52.128;5.208;2024-01-06T12:05:46;9.57;;;6.80;;
20294;SDS011;10306;52.128;5.208;2024-01-06T12:08:24;7.47;;;6.50;;
20294;SDS011;10306;52.128;5.208;2024-01-06T12:10:50;7.57;;;6.73;;
20294;SDS011;10306;52.128;5.208;2024-01-06T12:13:16;7.83;;;7.10;;
20294;SDS011;10306;52.128;5.208;2024-01-06T12:15:42;7.60;;;6.63;;
20294;SDS011;10306;52.128;5.208;2024-01-06T12:18:08;10.43;;;6.73;;
20294;SDS011;10306;52.128;5.208;2024-01-06T12:20:34;7.30;;;6.63;;
20294;SDS011;10306;52.128;5.208;2024-01-06T12:23:00;8.10;;;6.80;;
20294;SDS011;10306;52.128;5.208;2024-01-06T12:25:30;7.23;;;6.60;;
20294;SDS011;10306;52.128;5.208;2024-01-06T12:28:00;8.50;;;6.77;;
20294;SDS011;10306;52.128;5.208;2024-01-06T12:30:27;7.40;;;6.80;;
20294;SDS011;10306;52.128;5.208;2024-01-06T12:32:55;12.93;;;7.20;;
20294;SDS011;10306;52.128;5.208;2024-01-06T12:35:21;21.40;;;13.47;;
20294;SDS011;10306;52.128;5.208;2024-01-06T12:37:48;8.40;;;7.70;;
20294;SDS011;10306;52.128;5.208;2024-01-06T12:40:14;8.27;;;7.47;;
20294;SDS011;10306;52.128;5.208;2024-01-06T12:42:42;9.33;;;6.83;;
20294;SDS011;10306;52.128;5.208;2024-01-06T12:45:08;7.27;;;6.53;;
20294;SDS011;10306;52.128;5.208;2024-01-06T12:47:35;7.40;;;6.80;;
20294;SDS011;10306;52.128;5.208;2024-01-06T12:50:01;9.33;;;7.10;;
20294;SDS011;10306;52.128;5.208;2024-01-06T12:52:29;7.43;;;6.63;;
20294;SDS011;10306;52.128;5.208;2024-01-06T12:54:55;7.47;;;6.73;;
20294;SDS011;10306;52.128;5.208;2024-01-06T12:57:21;9.90;;;6.53;;
20294;SDS011;10306;52.128;5.208;2024-01-06T12:59:47;7.63;;;7.00;;
20294;SDS011;10306;52.128;5.208;2024-01-06T13:02:13;8.87;;;7.10;;
20294;SDS011;10306;52.128;5.208;2024-01-06T13:04:39;11.20;;;7.67;;
20294;SDS011;10306;52.128;5.208;2024-01-06T13:07:05;8.90;;;7.43;;
20294;SDS011;10306;52.128;5.208;2024-01-06T13:09:31;11.40;;;8.20;;
20294;SDS011;10306;52.128;5.208;2024-01-06T13:11:57;8.23;;;7.53;;
20294;SDS011;10306;52.128;5.208;2024-01-06T13:14:25;10.50;;;8.37;;
20294;SDS011;10306;52.128;5.208;2024-01-06T13:16:51;8.07;;;7.37;;
20294;SDS011;10306;52.128;5.208;2024-01-06T13:19:17;9.53;;;8.03;;
20294;SDS011;10306;52.128;5.208;2024-01-06T13:21:44;12.83;;;7.77;;
20294;SDS011;10306;52.128;5.208;2024-01-06T13:24:10;10.47;;;7.67;;
20294;SDS011;10306;52.128;5.208;2024-01-06T13:26:37;8.80;;;7.63;;
20294;SDS011;10306;52.128;5.208;2024-01-06T13:29:03;8.53;;;7.43;;
20294;SDS011;10306;52.128;5.208;2024-01-06T13:31:29;10.87;;;8.27;;
20294;SDS011;10306;52.128;5.208;2024-01-06T13:33:56;8.67;;;7.87;;
20294;SDS011;10306;52.128;5.208;2024-01-06T13:36:22;9.63;;;7.90;;
20294;SDS011;10306;52.128;5.208;2024-01-06T13:38:48;11.13;;;8.00;;
20294;SDS011;10306;52.128;5.208;2024-01-06T13:41:14;14.17;;;9.03;;
20294;SDS011;10306;52.128;5.208;2024-01-06T13:43:40;11.17;;;8.30;;
20294;SDS011;10306;52.128;5.208;2024-01-06T13:46:06;10.97;;;8.27;;
20294;SDS011;10306;52.128;5.208;2024-01-06T13:48:32;10.13;;;7.70;;
20294;SDS011;10306;52.128;5.208;2024-01-06T13:50:58;9.20;;;8.17;;
20294;SDS011;10306;52.128;5.208;2024-01-06T13:53:24;8.37;;;7.50;;
20294;SDS011;10306;52.128;5.208;2024-01-06T13:55:51;10.27;;;8.50;;
20294;SDS011;10306;52.128;5.208;2024-01-06T13:58:17;8.63;;;7.73;;
20294;SDS011;10306;52.128;5.208;2024-01-06T14:00:44;11.37;;;8.80;;
20294;SDS011;10306;52.128;5.208;2024-01-06T14:03:10;12.67;;;7.77;;
20294;SDS011;10306;52.128;5.208;2024-01-06T14:05:36;10.73;;;8.00;;
20294;SDS011;10306;52.128;5.208;2024-01-06T14:08:02;10.33;;;7.70;;
20294;SDS011;10306;52.128;5.208;2024-01-06T14:10:28;9.17;;;8.27;;
20294;SDS011;10306;52.128;5.208;2024-01-06T14:12:56;12.83;;;8.63;;
20294;SDS011;10306;52.128;5.208;2024-01-06T14:15:22;12.70;;;8.47;;
20294;SDS011;10306;52.128;5.208;2024-01-06T14:17:48;8.77;;;7.80;;
20294;SDS011;10306;52.128;5.208;2024-01-06T14:20:15;9.27;;;8.23;;
20294;SDS011;10306;52.128;5.208;2024-01-06T14:22:43;9.83;;;7.60;;
20294;SDS011;10306;52.128;5.208;2024-01-06T14:25:09;13.23;;;8.80;;
20294;SDS011;10306;52.128;5.208;2024-01-06T14:27:35;11.60;;;8.07;;
20294;SDS011;10306;52.128;5.208;2024-01-06T14:30:01;12.83;;;7.70;;
20294;SDS011;10306;52.128;5.208;2024-01-06T14:32:27;10.87;;;8.40;;
20294;SDS011;10306;52.128;5.208;2024-01-06T14:34:54;9.87;;;7.80;;
20294;SDS011;10306;52.128;5.208;2024-01-06T14:37:20;9.80;;;8.50;;